sensor_id;sensor_type;location;lat;lon;timestamp;temperature;humidity
61392;DHT22;47261;52.892;5.738;2023-04-24T00:02:04;12.10;99.90
61392;DHT22;47261;52.892;5.738;2023-04-24T00:04:33;12.10;99.90
61392;DHT22;47261;52.892;5.738;2023-04-24T00:06:58;12.20;99.90
61392;DHT22;47261;52.892;5.738;2023-04-24T00:09:25;12.20;99.90
61392;DHT22;47261;52.892;5.738;2023-04-24T00:11:51;12.20;99.90
61392;DHT22;47261;52.892;5.738;2023-04-24T00:14:17;12.20;99.90
61392;DHT22;47261;52.892;5.738;2023-04-24T00:16:43;12.20;99.90
61392;DHT22;47261;52.892;5.738;2023-04-24T00:19:09;12.20;99.90
61392;DHT22;47261;52.892;5.738;2023-04-24T00:21:34;12.20;99.90
61392;DHT22;47261;52.892;5.738;2023-04-24T00:24:00;12.20;99.90
61392;DHT22;47261;52.892;5.738;2023-04-24T00:26:26;12.20;99.90
61392;DHT22;47261;52.892;5.738;2023-04-24T00:28:51;12.20;99.90
61392;DHT22;47261;52.892;5.738;2023-04-24T00:31:17;12.20;99.90
61392;DHT22;47261;52.892;5.738;2023-04-24T00:33:43;12.20;99.90
61392;DHT22;47261;52.892;5.738;2023-04-24T00:36:08;12.20;99.90
61392;DHT22;47261;52.892;5.738;2023-04-24T00:38:35;12.10;99.90
61392;DHT22;47261;52.892;5.738;2023-04-24T00:41:00;12.10;99.90
61392;DHT22;47261;52.892;5.738;2023-04-24T00:43:26;12.10;99.90
61392;DHT22;47261;52.892;5.738;2023-04-24T00:45:52;12.10;99.90
61392;DHT22;47261;52.892;5.738;2023-04-24T00:48:18;12.00;99.90
61392;DHT22;47261;52.892;5.738;2023-04-24T00:50:44;12.00;99.90
61392;DHT22;47261;52.892;5.738;2023-04-24T00:53:10;12.00;99.90
61392;DHT22;47261;52.892;5.738;2023-04-24T00:55:36;12.00;99.90
61392;DHT22;47261;52.892;5.738;2023-04-24T00:58:02;12.00;99.90
61392;DHT22;47261;52.892;5.738;2023-04-24T01:00:28;11.90;99.90
61392;DHT22;47261;52.892;5.738;2023-04-24T01:02:55;11.90;99.90
61392;DHT22;47261;52.892;5.738;2023-04-24T01:05:21;11.90;99.90
61392;DHT22;47261;52.892;5.738;2023-04-24T01:07:47;11.90;99.90
61392;DHT22;47261;52.892;5.738;2023-04-24T01:10:14;11.90;99.90
61392;DHT22;47261;52.892;5.738;2023-04-24T01:12:40;11.90;99.90
61392;DHT22;47261;52.892;5.738;2023-04-24T01:15:07;11.80;99.90
61392;DHT22;47261;52.892;5.738;2023-04-24T01:17:33;11.80;99.90
61392;DHT22;47261;52.892;5.738;2023-04-24T01:19:59;11.80;99.90
61392;DHT22;47261;52.892;5.738;2023-04-24T01:22:26;11.80;99.90
61392;DHT22;47261;52.892;5.738;2023-04-24T01:24:52;11.80;99.90
61392;DHT22;47261;52.892;5.738;2023-04-24T01:27:19;11.80;99.90
61392;DHT22;47261;52.892;5.738;2023-04-24T01:29:45;11.80;99.90
61392;DHT22;47261;52.892;5.738;2023-04-24T01:32:13;11.80;99.90
61392;DHT22;47261;52.892;5.738;2023-04-24T01:34:38;11.80;99.90
61392;DHT22;47261;52.892;5.738;2023-04-24T01:37:05;11.80;99.90
61392;DHT22;47261;52.892;5.738;2023-04-24T01:39:31;11.80;99.90
61392;DHT22;47261;52.892;5.738;2023-04-24T01:41:57;11.80;99.90
61392;DHT22;47261;52.892;5.738;2023-04-24T01:44:23;11.80;99.90
61392;DHT22;47261;52.892;5.738;2023-04-24T01:46:48;11.70;99.90
61392;DHT22;47261;52.892;5.738;2023-04-24T01:49:14;11.80;99.90
61392;DHT22;47261;52.892;5.738;2023-04-24T01:51:40;11.80;99.90
61392;DHT22;47261;52.892;5.738;2023-04-24T01:54:06;11.80;99.90
61392;DHT22;47261;52.892;5.738;2023-04-24T01:56:33;11.80;99.90
61392;DHT22;47261;52.892;5.738;2023-04-24T01:59:03;11.80;99.90
61392;DHT22;47261;52.892;5.738;2023-04-24T02:01:34;11.80;99.90
61392;DHT22;47261;52.892;5.738;2023-04-24T02:04:01;11.80;99.90
61392;DHT22;47261;52.892;5.738;2023-04-24T02:06:27;11.80;99.90
61392;DHT22;47261;52.892;5.738;2023-04-24T02:08:52;11.80;99.90
61392;DHT22;47261;52.892;5.738;2023-04-24T02:11:18;11.80;99.90
61392;DHT22;47261;52.892;5.738;2023-04-24T02:13:44;11.80;99.90
61392;DHT22;47261;52.892;5.738;2023-04-24T02:16:10;11.80;99.90
61392;DHT22;47261;52.892;5.738;2023-04-24T02:18:35;11.80;99.90
61392;DHT22;47261;52.892;5.738;2023-04-24T02:21:01;11.80;99.90
61392;DHT22;47261;52.892;5.738;2023-04-24T02:23:27;11.70;99.90
61392;DHT22;47261;52.892;5.738;2023-04-24T02:25:53;11.70;99.90
61392;DHT22;47261;52.892;5.738;2023-04-24T02:28:19;11.70;99.90
61392;DHT22;47261;52.892;5.738;2023-04-24T02:30:45;11.70;99.90
61392;DHT22;47261;52.892;5.738;2023-04-24T02:33:11;11.70;99.90
61392;DHT22;47261;52.892;5.738;2023-04-24T02:35:37;11.70;99.90
61392;DHT22;47261;52.892;5.738;2023-04-24T02:38:03;11.70;99.90
61392;DHT22;47261;52.892;5.738;2023-04-24T02:40:29;11.70;99.90
61392;DHT22;47261;52.892;5.738;2023-04-24T02:42:55;11.70;99.90
61392;DHT22;47261;52.892;5.738;2023-04-24T02:45:20;11.70;99.90
61392;DHT22;47261;52.892;5.738;2023-04-24T02:47:46;11.80;99.90
61392;DHT22;47261;52.892;5.738;2023-04-24T02:50:11;11.70;99.90
61392;DHT22;47261;52.892;5.738;2023-04-24T02:52:37;11.70;99.90
61392;DHT22;47261;52.892;5.738;2023-04-24T02:55:03;11.70;99.90
61392;DHT22;47261;52.892;5.738;2023-04-24T02:57:29;11.70;99.90
61392;DHT22;47261;52.892;5.738;2023-04-24T02:59:54;11.70;99.90
61392;DHT22;47261;52.892;5.738;2023-04-24T03:02:20;11.60;99.90
61392;DHT22;47261;52.892;5.738;2023-04-24T03:04:46;11.60;99.90
61392;DHT22;47261;52.892;5.738;2023-04-24T03:07:13;11.60;99.90
61392;DHT22;47261;52.892;5.738;2023-04-24T03:09:40;11.60;99.90
61392;DHT22;47261;52.892;5.738;2023-04-24T03:12:06;11.60;99.90
61392;DHT22;47261;52.892;5.738;2023-04-24T03:14:31;11.60;99.90
61392;DHT22;47261;52.892;5.738;2023-04-24T03:16:57;11.60;99.90
61392;DHT22;47261;52.892;5.738;2023-04-24T03:19:23;11.60;99.90
61392;DHT22;47261;52.892;5.738;2023-04-24T03:21:49;11.60;99.90
61392;DHT22;47261;52.892;5.738;2023-04-24T03:24:15;11.50;99.90
61392;DHT22;47261;52.892;5.738;2023-04-24T03:26:41;11.50;99.90
61392;DHT22;47261;52.892;5.738;2023-04-24T03:29:07;11.50;99.90
61392;DHT22;47261;52.892;5.738;2023-04-24T03:31:33;11.50;99.90
61392;DHT22;47261;52.892;5.738;2023-04-24T03:33:58;11.50;99.90
61392;DHT22;47261;52.892;5.738;2023-04-24T03:36:24;11.50;99.90
61392;DHT22;47261;52.892;5.738;2023-04-24T03:38:51;11.50;99.90
61392;DHT22;47261;52.892;5.738;2023-04-24T03:41:17;11.50;99.90
61392;DHT22;47261;52.892;5.738;2023-04-24T03:43:42;11.40;99.90
61392;DHT22;47261;52.892;5.738;2023-04-24T03:46:08;11.40;99.90
61392;DHT22;47261;52.892;5.738;2023-04-24T03:48:35;11.40;99.90
61392;DHT22;47261;52.892;5.738;2023-04-24T03:51:00;11.40;99.90
61392;DHT22;47261;52.892;5.738;2023-04-24T03:53:26;11.40;99.90
61392;DHT22;47261;52.892;5.738;2023-04-24T03:55:53;11.30;99.90
61392;DHT22;47261;52.892;5.738;2023-04-24T03:58:18;11.30;99.90
61392;DHT22;47261;52.892;5.738;2023-04-24T04:00:44;11.30;99.90
61392;DHT22;47261;52.892;5.738;2023-04-24T04:03:11;11.30;99.90
61392;DHT22;47261;52.892;5.738;2023-04-24T04:05:38;11.20;99.90
61392;DHT22;47261;52.892;5.738;2023-04-24T04:08:04;11.20;99.90
61392;DHT22;47261;52.892;5.738;2023-04-24T04:10:29;11.20;99.90
61392;DHT22;47261;52.892;5.738;2023-04-24T04:12:55;11.20;99.90
61392;DHT22;47261;52.892;5.738;2023-04-24T04:15:20;11.10;99.90
61392;DHT22;47261;52.892;5.738;2023-04-24T04:17:46;11.10;99.90
61392;DHT22;47261;52.892;5.738;2023-04-24T04:20:12;11.10;99.90
61392;DHT22;47261;52.892;5.738;2023-04-24T04:22:38;11.10;99.90
61392;DHT22;47261;52.892;5.738;2023-04-24T04:25:05;11.10;99.90
61392;DHT22;47261;52.892;5.738;2023-04-24T04:27:31;11.10;99.90
61392;DHT22;47261;52.892;5.738;2023-04-24T04:30:01;11.10;99.90
61392;DHT22;47261;52.892;5.738;2023-04-24T04:32:33;11.00;99.90
61392;DHT22;47261;52.892;5.738;2023-04-24T04:35:00;11.00;99.90
61392;DHT22;47261;52.892;5.738;2023-04-24T04:37:33;11.00;99.90
61392;DHT22;47261;52.892;5.738;2023-04-24T04:39:59;11.00;99.90
61392;DHT22;47261;52.892;5.738;2023-04-24T04:42:28;10.90;99.90
61392;DHT22;47261;52.892;5.738;2023-04-24T04:44:54;11.00;99.90
61392;DHT22;47261;52.892;5.738;2023-04-24T04:47:22;10.90;99.90
61392;DHT22;47261;52.892;5.738;2023-04-24T04:49:50;10.90;99.90
61392;DHT22;47261;52.892;5.738;2023-04-24T04:52:17;11.00;99.90
61392;DHT22;47261;52.892;5.738;2023-04-24T04:54:43;11.00;99.90
61392;DHT22;47261;52.892;5.738;2023-04-24T04:57:09;10.90;99.90
61392;DHT22;47261;52.892;5.738;2023-04-24T04:59:35;10.90;99.90
61392;DHT22;47261;52.892;5.738;2023-04-24T05:02:01;10.90;99.90
61392;DHT22;47261;52.892;5.738;2023-04-24T05:04:26;10.90;99.90
61392;DHT22;47261;52.892;5.738;2023-04-24T05:06:52;10.90;99.90
61392;DHT22;47261;52.892;5.738;2023-04-24T05:09:18;10.90;99.90
61392;DHT22;47261;52.892;5.738;2023-04-24T05:11:44;10.90;99.90
61392;DHT22;47261;52.892;5.738;2023-04-24T05:14:09;10.90;99.90
61392;DHT22;47261;52.892;5.738;2023-04-24T05:16:35;10.90;99.90
61392;DHT22;47261;52.892;5.738;2023-04-24T05:19:02;10.90;99.90
61392;DHT22;47261;52.892;5.738;2023-04-24T05:21:28;10.90;99.90
61392;DHT22;47261;52.892;5.738;2023-04-24T05:23:54;10.80;99.90
61392;DHT22;47261;52.892;5.738;2023-04-24T05:26:20;10.90;99.90
61392;DHT22;47261;52.892;5.738;2023-04-24T05:28:46;10.80;99.90
61392;DHT22;47261;52.892;5.738;2023-04-24T05:31:11;10.80;99.90
61392;DHT22;47261;52.892;5.738;2023-04-24T05:33:37;10.80;99.90
61392;DHT22;47261;52.892;5.738;2023-04-24T05:36:03;10.80;99.90
61392;DHT22;47261;52.892;5.738;2023-04-24T05:38:30;10.80;99.90
61392;DHT22;47261;52.892;5.738;2023-04-24T05:40:56;10.80;99.90
61392;DHT22;47261;52.892;5.738;2023-04-24T05:43:22;10.80;99.90
61392;DHT22;47261;52.892;5.738;2023-04-24T05:45:47;10.80;99.90
61392;DHT22;47261;52.892;5.738;2023-04-24T05:48:13;10.80;99.90
61392;DHT22;47261;52.892;5.738;2023-04-24T05:50:38;10.80;99.90
61392;DHT22;47261;52.892;5.738;2023-04-24T05:53:05;10.90;99.90
61392;DHT22;47261;52.892;5.738;2023-04-24T05:55:32;10.80;99.90
61392;DHT22;47261;52.892;5.738;2023-04-24T05:57:58;10.80;99.90
61392;DHT22;47261;52.892;5.738;2023-04-24T06:00:24;10.90;99.90
61392;DHT22;47261;52.892;5.738;2023-04-24T06:02:50;10.90;99.90
61392;DHT22;47261;52.892;5.738;2023-04-24T06:05:16;10.90;99.90
61392;DHT22;47261;52.892;5.738;2023-04-24T06:07:42;10.90;99.90
61392;DHT22;47261;52.892;5.738;2023-04-24T06:10:09;10.90;99.90
61392;DHT22;47261;52.892;5.738;2023-04-24T06:12:34;10.90;99.90
61392;DHT22;47261;52.892;5.738;2023-04-24T06:15:00;10.90;99.90
61392;DHT22;47261;52.892;5.738;2023-04-24T06:17:26;10.90;99.90
61392;DHT22;47261;52.892;5.738;2023-04-24T06:19:52;10.90;99.90
61392;DHT22;47261;52.892;5.738;2023-04-24T06:22:17;10.90;99.90
61392;DHT22;47261;52.892;5.738;2023-04-24T06:24:43;10.90;99.90
61392;DHT22;47261;52.892;5.738;2023-04-24T06:27:08;10.90;99.90
61392;DHT22;47261;52.892;5.738;2023-04-24T06:29:35;10.90;99.90
61392;DHT22;47261;52.892;5.738;2023-04-24T06:32:01;10.80;99.90
61392;DHT22;47261;52.892;5.738;2023-04-24T06:34:27;10.80;99.90
61392;DHT22;47261;52.892;5.738;2023-04-24T06:36:53;10.80;99.90
61392;DHT22;47261;52.892;5.738;2023-04-24T06:39:19;10.80;99.90
61392;DHT22;47261;52.892;5.738;2023-04-24T06:41:45;10.80;99.90
61392;DHT22;47261;52.892;5.738;2023-04-24T06:44:10;10.70;99.90
61392;DHT22;47261;52.892;5.738;2023-04-24T06:46:36;10.80;99.90
61392;DHT22;47261;52.892;5.738;2023-04-24T06:49:01;10.70;99.90
61392;DHT22;47261;52.892;5.738;2023-04-24T06:51:27;10.70;99.90
61392;DHT22;47261;52.892;5.738;2023-04-24T06:53:53;10.70;99.90
61392;DHT22;47261;52.892;5.738;2023-04-24T06:56:20;10.70;99.90
61392;DHT22;47261;52.892;5.738;2023-04-24T06:58:46;10.60;99.90
61392;DHT22;47261;52.892;5.738;2023-04-24T07:01:12;10.60;99.90
61392;DHT22;47261;52.892;5.738;2023-04-24T07:03:37;10.50;99.90
61392;DHT22;47261;52.892;5.738;2023-04-24T07:06:04;10.50;99.90
61392;DHT22;47261;52.892;5.738;2023-04-24T07:08:30;10.50;99.90
61392;DHT22;47261;52.892;5.738;2023-04-24T07:10:59;10.40;99.90
61392;DHT22;47261;52.892;5.738;2023-04-24T07:13:25;10.40;99.90
61392;DHT22;47261;52.892;5.738;2023-04-24T07:15:50;10.30;99.90
61392;DHT22;47261;52.892;5.738;2023-04-24T07:18:18;10.30;99.90
61392;DHT22;47261;52.892;5.738;2023-04-24T07:20:43;10.20;99.90
61392;DHT22;47261;52.892;5.738;2023-04-24T07:23:10;10.20;99.90
61392;DHT22;47261;52.892;5.738;2023-04-24T07:25:35;10.20;99.90
61392;DHT22;47261;52.892;5.738;2023-04-24T07:28:01;10.20;99.90
61392;DHT22;47261;52.892;5.738;2023-04-24T07:30:27;10.20;99.90
61392;DHT22;47261;52.892;5.738;2023-04-24T07:32:55;10.20;99.90
61392;DHT22;47261;52.892;5.738;2023-04-24T07:35:21;10.10;99.90
61392;DHT22;47261;52.892;5.738;2023-04-24T07:37:47;10.00;99.90
61392;DHT22;47261;52.892;5.738;2023-04-24T07:40:13;10.00;99.90
61392;DHT22;47261;52.892;5.738;2023-04-24T07:42:39;9.90;99.90
61392;DHT22;47261;52.892;5.738;2023-04-24T07:45:05;9.90;99.90
61392;DHT22;47261;52.892;5.738;2023-04-24T07:47:32;9.90;99.90
61392;DHT22;47261;52.892;5.738;2023-04-24T07:49:58;9.90;99.90
61392;DHT22;47261;52.892;5.738;2023-04-24T07:52:24;9.90;99.90
61392;DHT22;47261;52.892;5.738;2023-04-24T07:54:50;9.90;99.90
61392;DHT22;47261;52.892;5.738;2023-04-24T07:57:16;10.00;99.90
61392;DHT22;47261;52.892;5.738;2023-04-24T07:59:42;10.00;99.90
61392;DHT22;47261;52.892;5.738;2023-04-24T08:02:07;10.10;99.90
61392;DHT22;47261;52.892;5.738;2023-04-24T08:04:33;10.20;99.90
61392;DHT22;47261;52.892;5.738;2023-04-24T08:06:59;10.30;99.90
61392;DHT22;47261;52.892;5.738;2023-04-24T08:09:25;10.40;99.90
61392;DHT22;47261;52.892;5.738;2023-04-24T08:11:50;10.50;99.90
61392;DHT22;47261;52.892;5.738;2023-04-24T08:14:16;10.50;99.90
61392;DHT22;47261;52.892;5.738;2023-04-24T08:16:42;10.60;99.90
61392;DHT22;47261;52.892;5.738;2023-04-24T08:19:08;10.70;99.90
61392;DHT22;47261;52.892;5.738;2023-04-24T08:21:33;10.70;99.90
61392;DHT22;47261;52.892;5.738;2023-04-24T08:23:59;10.70;99.90
61392;DHT22;47261;52.892;5.738;2023-04-24T08:26:25;10.80;99.90
61392;DHT22;47261;52.892;5.738;2023-04-24T08:28:50;10.80;99.90
61392;DHT22;47261;52.892;5.738;2023-04-24T08:31:16;10.90;99.90
61392;DHT22;47261;52.892;5.738;2023-04-24T08:33:41;11.00;99.90
61392;DHT22;47261;52.892;5.738;2023-04-24T08:36:10;11.00;99.90
61392;DHT22;47261;52.892;5.738;2023-04-24T08:38:36;11.00;99.90
61392;DHT22;47261;52.892;5.738;2023-04-24T08:41:01;11.10;99.90
61392;DHT22;47261;52.892;5.738;2023-04-24T08:43:28;11.10;99.90
61392;DHT22;47261;52.892;5.738;2023-04-24T08:45:56;11.10;99.90
61392;DHT22;47261;52.892;5.738;2023-04-24T08:48:22;11.10;99.90
61392;DHT22;47261;52.892;5.738;2023-04-24T08:50:50;11.10;99.90
61392;DHT22;47261;52.892;5.738;2023-04-24T08:53:16;11.10;99.90
61392;DHT22;47261;52.892;5.738;2023-04-24T08:55:43;11.10;99.90
61392;DHT22;47261;52.892;5.738;2023-04-24T08:58:12;11.10;99.90
61392;DHT22;47261;52.892;5.738;2023-04-24T09:00:39;11.10;99.90
61392;DHT22;47261;52.892;5.738;2023-04-24T09:03:05;11.00;99.90
61392;DHT22;47261;52.892;5.738;2023-04-24T09:05:32;10.90;99.90
61392;DHT22;47261;52.892;5.738;2023-04-24T09:07:59;10.90;99.90
61392;DHT22;47261;52.892;5.738;2023-04-24T09:10:27;10.80;99.90
61392;DHT22;47261;52.892;5.738;2023-04-24T09:12:56;10.70;99.90
61392;DHT22;47261;52.892;5.738;2023-04-24T09:15:24;10.60;99.70
61392;DHT22;47261;52.892;5.738;2023-04-24T09:17:50;10.40;99.60
61392;DHT22;47261;52.892;5.738;2023-04-24T09:20:16;10.30;99.80
61392;DHT22;47261;52.892;5.738;2023-04-24T09:22:42;10.20;99.90
61392;DHT22;47261;52.892;5.738;2023-04-24T09:25:09;10.20;99.90
61392;DHT22;47261;52.892;5.738;2023-04-24T09:27:42;10.10;99.90
61392;DHT22;47261;52.892;5.738;2023-04-24T09:30:08;10.10;99.90
61392;DHT22;47261;52.892;5.738;2023-04-24T09:32:34;10.10;99.90
61392;DHT22;47261;52.892;5.738;2023-04-24T09:35:14;10.20;99.90
61392;DHT22;47261;52.892;5.738;2023-04-24T09:37:45;10.20;99.90
61392;DHT22;47261;52.892;5.738;2023-04-24T09:40:19;10.30;99.90
61392;DHT22;47261;52.892;5.738;2023-04-24T09:42:51;10.40;99.90
61392;DHT22;47261;52.892;5.738;2023-04-24T09:45:18;10.50;99.90
61392;DHT22;47261;52.892;5.738;2023-04-24T09:47:43;10.60;99.90
61392;DHT22;47261;52.892;5.738;2023-04-24T09:50:16;10.60;99.90
61392;DHT22;47261;52.892;5.738;2023-04-24T09:52:57;10.70;99.90
61392;DHT22;47261;52.892;5.738;2023-04-24T09:55:23;10.70;99.90
61392;DHT22;47261;52.892;5.738;2023-04-24T09:57:50;10.70;99.80
61392;DHT22;47261;52.892;5.738;2023-04-24T10:00:24;10.70;99.60
61392;DHT22;47261;52.892;5.738;2023-04-24T10:02:54;10.70;99.80
61392;DHT22;47261;52.892;5.738;2023-04-24T10:05:23;10.70;99.90
61392;DHT22;47261;52.892;5.738;2023-04-24T10:07:49;10.70;99.90
61392;DHT22;47261;52.892;5.738;2023-04-24T10:10:14;10.80;99.70
61392;DHT22;47261;52.892;5.738;2023-04-24T10:12:41;10.70;99.50
61392;DHT22;47261;52.892;5.738;2023-04-24T10:15:09;10.80;99.50
61392;DHT22;47261;52.892;5.738;2023-04-24T10:17:35;10.80;99.30
61392;DHT22;47261;52.892;5.738;2023-04-24T10:20:01;10.90;99.20
61392;DHT22;47261;52.892;5.738;2023-04-24T10:22:28;10.90;99.30
61392;DHT22;47261;52.892;5.738;2023-04-24T10:24:56;11.00;99.40
61392;DHT22;47261;52.892;5.738;2023-04-24T10:27:23;11.10;98.70
61392;DHT22;47261;52.892;5.738;2023-04-24T10:29:51;11.20;98.50
61392;DHT22;47261;52.892;5.738;2023-04-24T10:32:18;11.30;98.30
61392;DHT22;47261;52.892;5.738;2023-04-24T10:34:44;11.40;97.90
61392;DHT22;47261;52.892;5.738;2023-04-24T10:37:10;11.60;97.80
61392;DHT22;47261;52.892;5.738;2023-04-24T10:39:36;11.70;97.40
61392;DHT22;47261;52.892;5.738;2023-04-24T10:42:14;11.80;97.30
61392;DHT22;47261;52.892;5.738;2023-04-24T10:44:41;11.90;96.60
61392;DHT22;47261;52.892;5.738;2023-04-24T10:47:12;11.90;96.30
61392;DHT22;47261;52.892;5.738;2023-04-24T10:49:38;11.80;95.30
61392;DHT22;47261;52.892;5.738;2023-04-24T10:52:04;11.70;95.70
61392;DHT22;47261;52.892;5.738;2023-04-24T10:54:46;11.60;95.90
61392;DHT22;47261;52.892;5.738;2023-04-24T11:00:20;11.40;96.80
61392;DHT22;47261;52.892;5.738;2023-04-24T11:02:47;11.30;97.20
61392;DHT22;47261;52.892;5.738;2023-04-24T11:05:16;11.30;97.30
61392;DHT22;47261;52.892;5.738;2023-04-24T11:08:11;11.20;96.90
61392;DHT22;47261;52.892;5.738;2023-04-24T11:10:44;11.30;97.00
61392;DHT22;47261;52.892;5.738;2023-04-24T11:13:10;11.40;96.90
61392;DHT22;47261;52.892;5.738;2023-04-24T11:15:35;11.40;96.30
61392;DHT22;47261;52.892;5.738;2023-04-24T11:18:01;11.50;96.50
61392;DHT22;47261;52.892;5.738;2023-04-24T11:20:27;11.60;96.30
61392;DHT22;47261;52.892;5.738;2023-04-24T11:22:54;11.60;95.80
61392;DHT22;47261;52.892;5.738;2023-04-24T11:25:21;11.50;95.90
61392;DHT22;47261;52.892;5.738;2023-04-24T11:27:48;11.30;96.10
61392;DHT22;47261;52.892;5.738;2023-04-24T11:30:20;11.10;96.40
61392;DHT22;47261;52.892;5.738;2023-04-24T11:32:51;10.80;97.10
61392;DHT22;47261;52.892;5.738;2023-04-24T11:35:21;10.60;97.90
61392;DHT22;47261;52.892;5.738;2023-04-24T11:37:54;10.60;98.80
61392;DHT22;47261;52.892;5.738;2023-04-24T11:40:21;10.50;99.20
61392;DHT22;47261;52.892;5.738;2023-04-24T11:42:49;10.70;99.70
61392;DHT22;47261;52.892;5.738;2023-04-24T11:45:18;10.80;99.90
61392;DHT22;47261;52.892;5.738;2023-04-24T11:47:45;10.90;99.30
61392;DHT22;47261;52.892;5.738;2023-04-24T11:50:15;11.00;98.90
61392;DHT22;47261;52.892;5.738;2023-04-24T11:52:44;11.10;98.50
61392;DHT22;47261;52.892;5.738;2023-04-24T11:57:47;11.20;98.20
61392;DHT22;47261;52.892;5.738;2023-04-24T12:00:18;11.30;98.50
61392;DHT22;47261;52.892;5.738;2023-04-24T12:02:44;11.40;98.50
61392;DHT22;47261;52.892;5.738;2023-04-24T12:05:22;11.40;96.80
61392;DHT22;47261;52.892;5.738;2023-04-24T12:07:49;11.30;96.50
61392;DHT22;47261;52.892;5.738;2023-04-24T12:10:19;11.20;96.70
61392;DHT22;47261;52.892;5.738;2023-04-24T12:12:45;11.10;96.80
61392;DHT22;47261;52.892;5.738;2023-04-24T12:15:11;11.10;96.60
61392;DHT22;47261;52.892;5.738;2023-04-24T12:17:41;11.10;96.40
61392;DHT22;47261;52.892;5.738;2023-04-24T12:20:08;11.10;96.70
61392;DHT22;47261;52.892;5.738;2023-04-24T12:22:55;11.30;97.40
61392;DHT22;47261;52.892;5.738;2023-04-24T12:25:25;11.50;96.20
61392;DHT22;47261;52.892;5.738;2023-04-24T12:28:08;11.50;95.30
61392;DHT22;47261;52.892;5.738;2023-04-24T12:30:48;11.50;95.20
61392;DHT22;47261;52.892;5.738;2023-04-24T12:33:20;11.30;95.50
61392;DHT22;47261;52.892;5.738;2023-04-24T12:35:51;11.30;96.20
61392;DHT22;47261;52.892;5.738;2023-04-24T12:38:22;11.20;96.50
61392;DHT22;47261;52.892;5.738;2023-04-24T12:41:04;11.20;96.90
61392;DHT22;47261;52.892;5.738;2023-04-24T12:43:31;11.30;97.00
61392;DHT22;47261;52.892;5.738;2023-04-24T12:45:56;11.30;96.40
61392;DHT22;47261;52.892;5.738;2023-04-24T12:48:22;11.30;96.20
61392;DHT22;47261;52.892;5.738;2023-04-24T12:50:48;11.30;96.40
61392;DHT22;47261;52.892;5.738;2023-04-24T12:53:14;11.30;95.90
61392;DHT22;47261;52.892;5.738;2023-04-24T12:55:41;11.20;96.20
61392;DHT22;47261;52.892;5.738;2023-04-24T12:58:07;10.90;96.60
61392;DHT22;47261;52.892;5.738;2023-04-24T13:00:33;10.70;97.00
61392;DHT22;47261;52.892;5.738;2023-04-24T13:02:59;10.50;97.60
61392;DHT22;47261;52.892;5.738;2023-04-24T13:05:24;10.40;97.90
61392;DHT22;47261;52.892;5.738;2023-04-24T13:07:50;10.30;98.50
61392;DHT22;47261;52.892;5.738;2023-04-24T13:10:16;10.30;99.00
61392;DHT22;47261;52.892;5.738;2023-04-24T13:12:41;10.30;98.90
61392;DHT22;47261;52.892;5.738;2023-04-24T13:15:10;10.30;99.10
61392;DHT22;47261;52.892;5.738;2023-04-24T13:17:36;10.30;99.20
61392;DHT22;47261;52.892;5.738;2023-04-24T13:20:02;10.20;99.60
61392;DHT22;47261;52.892;5.738;2023-04-24T13:22:28;10.20;99.70
61392;DHT22;47261;52.892;5.738;2023-04-24T13:24:53;10.20;99.90
61392;DHT22;47261;52.892;5.738;2023-04-24T13:27:20;10.30;99.90
61392;DHT22;47261;52.892;5.738;2023-04-24T13:29:45;10.50;99.90
61392;DHT22;47261;52.892;5.738;2023-04-24T13:32:11;10.60;99.90
61392;DHT22;47261;52.892;5.738;2023-04-24T13:34:37;10.80;99.60
61392;DHT22;47261;52.892;5.738;2023-04-24T13:37:03;10.80;98.60
61392;DHT22;47261;52.892;5.738;2023-04-24T13:39:29;10.80;98.00
61392;DHT22;47261;52.892;5.738;2023-04-24T13:41:55;10.70;97.70
61392;DHT22;47261;52.892;5.738;2023-04-24T13:44:22;10.70;98.50
61392;DHT22;47261;52.892;5.738;2023-04-24T13:46:50;10.60;98.60
61392;DHT22;47261;52.892;5.738;2023-04-24T13:49:17;10.60;98.60
61392;DHT22;47261;52.892;5.738;2023-04-24T13:51:43;10.60;98.50
61392;DHT22;47261;52.892;5.738;2023-04-24T13:54:09;10.60;98.90
61392;DHT22;47261;52.892;5.738;2023-04-24T13:56:34;10.60;98.50
61392;DHT22;47261;52.892;5.738;2023-04-24T13:59:00;10.70;98.60
61392;DHT22;47261;52.892;5.738;2023-04-24T14:01:26;10.70;98.10
61392;DHT22;47261;52.892;5.738;2023-04-24T14:03:53;10.80;98.00
61392;DHT22;47261;52.892;5.738;2023-04-24T14:06:19;10.90;97.70
61392;DHT22;47261;52.892;5.738;2023-04-24T14:08:46;11.00;97.60
61392;DHT22;47261;52.892;5.738;2023-04-24T14:11:12;11.00;97.70
61392;DHT22;47261;52.892;5.738;2023-04-24T14:13:37;11.00;97.30
61392;DHT22;47261;52.892;5.738;2023-04-24T14:16:04;11.00;97.30
61392;DHT22;47261;52.892;5.738;2023-04-24T14:18:30;11.00;97.50
61392;DHT22;47261;52.892;5.738;2023-04-24T14:20:55;11.00;97.60
61392;DHT22;47261;52.892;5.738;2023-04-24T14:23:21;11.00;97.40
61392;DHT22;47261;52.892;5.738;2023-04-24T14:25:47;11.00;97.40
61392;DHT22;47261;52.892;5.738;2023-04-24T14:28:16;11.10;97.40
61392;DHT22;47261;52.892;5.738;2023-04-24T14:30:42;11.10;97.20
61392;DHT22;47261;52.892;5.738;2023-04-24T14:33:08;11.10;97.10
61392;DHT22;47261;52.892;5.738;2023-04-24T14:35:33;11.10;97.40
61392;DHT22;47261;52.892;5.738;2023-04-24T14:38:00;11.20;97.20
61392;DHT22;47261;52.892;5.738;2023-04-24T14:40:26;11.20;96.90
61392;DHT22;47261;52.892;5.738;2023-04-24T14:42:52;11.20;97.10
61392;DHT22;47261;52.892;5.738;2023-04-24T14:45:18;11.10;97.60
61392;DHT22;47261;52.892;5.738;2023-04-24T14:47:44;11.00;98.00
61392;DHT22;47261;52.892;5.738;2023-04-24T14:50:10;10.90;98.50
61392;DHT22;47261;52.892;5.738;2023-04-24T14:52:38;10.80;99.00
61392;DHT22;47261;52.892;5.738;2023-04-24T14:55:04;10.80;99.30
61392;DHT22;47261;52.892;5.738;2023-04-24T14:57:29;10.80;99.40
61392;DHT22;47261;52.892;5.738;2023-04-24T14:59:55;10.80;99.40
61392;DHT22;47261;52.892;5.738;2023-04-24T15:02:21;10.80;99.40
61392;DHT22;47261;52.892;5.738;2023-04-24T15:04:46;10.80;99.10
61392;DHT22;47261;52.892;5.738;2023-04-24T15:07:12;10.70;99.10
61392;DHT22;47261;52.892;5.738;2023-04-24T15:09:37;10.80;99.20
61392;DHT22;47261;52.892;5.738;2023-04-24T15:12:03;11.00;99.90
61392;DHT22;47261;52.892;5.738;2023-04-24T15:14:29;11.10;99.40
61392;DHT22;47261;52.892;5.738;2023-04-24T15:16:55;11.20;98.90
61392;DHT22;47261;52.892;5.738;2023-04-24T15:19:20;11.20;98.70
61392;DHT22;47261;52.892;5.738;2023-04-24T15:21:46;11.20;98.70
61392;DHT22;47261;52.892;5.738;2023-04-24T15:24:12;11.10;98.50
61392;DHT22;47261;52.892;5.738;2023-04-24T15:26:37;10.90;98.40
61392;DHT22;47261;52.892;5.738;2023-04-24T15:29:03;10.80;98.50
61392;DHT22;47261;52.892;5.738;2023-04-24T15:31:29;10.70;98.70
61392;DHT22;47261;52.892;5.738;2023-04-24T15:33:54;10.60;98.90